sensor_id;sensor_type;location;lat;lon;timestamp;P1;durP1;ratioP1;P2;durP2;ratioP2
29214;SDS011;16252;49.816;7.964;2023-01-10T00:01:08;1.50;;;0.45;;
29214;SDS011;16252;49.816;7.964;2023-01-10T00:03:33;0.40;;;0.40;;
29214;SDS011;16252;49.816;7.964;2023-01-10T00:05:59;0.47;;;0.47;;
29214;SDS011;16252;49.816;7.964;2023-01-10T00:08:24;0.40;;;0.40;;
29214;SDS011;16252;49.816;7.964;2023-01-10T00:10:49;0.40;;;0.40;;
29214;SDS011;16252;49.816;7.964;2023-01-10T00:13:15;0.50;;;0.40;;
29214;SDS011;16252;49.816;7.964;2023-01-10T00:15:47;0.30;;;0.30;;
29214;SDS011;16252;49.816;7.964;2023-01-10T00:18:14;0.52;;;0.52;;
29214;SDS011;16252;49.816;7.964;2023-01-10T00:20:40;0.35;;;0.35;;
29214;SDS011;16252;49.816;7.964;2023-01-10T00:23:05;0.50;;;0.50;;
29214;SDS011;16252;49.816;7.964;2023-01-10T00:25:30;0.93;;;0.40;;
29214;SDS011;16252;49.816;7.964;2023-01-10T00:27:58;0.50;;;0.50;;
29214;SDS011;16252;49.816;7.964;2023-01-10T00:30:35;0.70;;;0.60;;
29214;SDS011;16252;49.816;7.964;2023-01-10T00:33:04;0.40;;;0.40;;
29214;SDS011;16252;49.816;7.964;2023-01-10T00:35:30;0.98;;;0.50;;
29214;SDS011;16252;49.816;7.964;2023-01-10T00:37:55;0.50;;;0.50;;
29214;SDS011;16252;49.816;7.964;2023-01-10T00:40:30;0.50;;;0.50;;
29214;SDS011;16252;49.816;7.964;2023-01-10T00:42:56;1.70;;;0.60;;
29214;SDS011;16252;49.816;7.964;2023-01-10T00:45:40;1.25;;;0.65;;
29214;SDS011;16252;49.816;7.964;2023-01-10T00:48:05;0.60;;;0.50;;
29214;SDS011;16252;49.816;7.964;2023-01-10T00:50:30;0.50;;;0.50;;
29214;SDS011;16252;49.816;7.964;2023-01-10T00:52:56;2.00;;;1.05;;
29214;SDS011;16252;49.816;7.964;2023-01-10T00:55:21;2.67;;;0.60;;
29214;SDS011;16252;49.816;7.964;2023-01-10T00:57:46;0.68;;;0.60;;
29214;SDS011;16252;49.816;7.964;2023-01-10T01:00:11;0.70;;;0.70;;
29214;SDS011;16252;49.816;7.964;2023-01-10T01:02:37;6.22;;;1.05;;
29214;SDS011;16252;49.816;7.964;2023-01-10T01:05:02;0.95;;;0.60;;
29214;SDS011;16252;49.816;7.964;2023-01-10T01:07:28;0.50;;;0.50;;
29214;SDS011;16252;49.816;7.964;2023-01-10T01:09:53;2.15;;;0.80;;
29214;SDS011;16252;49.816;7.964;2023-01-10T01:12:37;1.30;;;0.68;;
29214;SDS011;16252;49.816;7.964;2023-01-10T01:15:03;1.40;;;0.65;;
29214;SDS011;16252;49.816;7.964;2023-01-10T01:17:28;0.70;;;0.70;;
29214;SDS011;16252;49.816;7.964;2023-01-10T01:19:53;0.93;;;0.70;;
29214;SDS011;16252;49.816;7.964;2023-01-10T01:22:19;0.63;;;0.63;;
29214;SDS011;16252;49.816;7.964;2023-01-10T01:24:44;1.63;;;0.70;;
29214;SDS011;16252;49.816;7.964;2023-01-10T01:27:09;1.85;;;0.57;;
29214;SDS011;16252;49.816;7.964;2023-01-10T01:29:35;2.80;;;0.80;;
29214;SDS011;16252;49.816;7.964;2023-01-10T01:32:00;1.17;;;0.70;;
29214;SDS011;16252;49.816;7.964;2023-01-10T01:34:25;1.52;;;0.70;;
29214;SDS011;16252;49.816;7.964;2023-01-10T01:36:50;2.13;;;1.00;;
29214;SDS011;16252;49.816;7.964;2023-01-10T01:39:16;0.80;;;0.55;;
29214;SDS011;16252;49.816;7.964;2023-01-10T01:41:41;1.92;;;0.85;;
29214;SDS011;16252;49.816;7.964;2023-01-10T01:44:23;1.55;;;0.63;;
29214;SDS011;16252;49.816;7.964;2023-01-10T01:47:01;1.02;;;0.70;;
29214;SDS011;16252;49.816;7.964;2023-01-10T01:49:30;1.35;;;0.70;;
29214;SDS011;16252;49.816;7.964;2023-01-10T01:51:58;0.77;;;0.77;;
29214;SDS011;16252;49.816;7.964;2023-01-10T01:54:28;1.67;;;0.80;;
29214;SDS011;16252;49.816;7.964;2023-01-10T01:56:57;1.55;;;0.98;;
29214;SDS011;16252;49.816;7.964;2023-01-10T01:59:30;1.38;;;0.80;;
29214;SDS011;16252;49.816;7.964;2023-01-10T02:02:01;0.80;;;0.80;;
29214;SDS011;16252;49.816;7.964;2023-01-10T02:04:43;2.67;;;1.00;;
29214;SDS011;16252;49.816;7.964;2023-01-10T02:07:16;2.92;;;1.10;;
29214;SDS011;16252;49.816;7.964;2023-01-10T02:09:44;1.75;;;0.80;;
29214;SDS011;16252;49.816;7.964;2023-01-10T02:12:11;1.48;;;0.80;;
29214;SDS011;16252;49.816;7.964;2023-01-10T02:14:38;3.17;;;1.00;;
29214;SDS011;16252;49.816;7.964;2023-01-10T02:17:07;2.53;;;1.05;;
29214;SDS011;16252;49.816;7.964;2023-01-10T02:19:47;2.13;;;0.90;;
29214;SDS011;16252;49.816;7.964;2023-01-10T02:33:55;2.67;;;1.02;;
29214;SDS011;16252;49.816;7.964;2023-01-10T02:36:31;1.75;;;0.98;;
29214;SDS011;16252;49.816;7.964;2023-01-10T02:41:49;2.40;;;0.85;;
29214;SDS011;16252;49.816;7.964;2023-01-10T02:44:29;1.83;;;1.13;;
29214;SDS011;16252;49.816;7.964;2023-01-10T02:46:56;2.38;;;1.40;;
29214;SDS011;16252;49.816;7.964;2023-01-10T02:49:21;5.93;;;1.05;;
29214;SDS011;16252;49.816;7.964;2023-01-10T02:51:46;5.13;;;1.60;;
29214;SDS011;16252;49.816;7.964;2023-01-10T02:54:13;5.13;;;1.20;;
29214;SDS011;16252;49.816;7.964;2023-01-10T02:56:48;3.10;;;1.27;;
29214;SDS011;16252;49.816;7.964;2023-01-10T02:59:28;5.10;;;1.58;;
29214;SDS011;16252;49.816;7.964;2023-01-10T03:02:04;2.28;;;1.35;;
29214;SDS011;16252;49.816;7.964;2023-01-10T03:04:41;2.70;;;1.30;;
29214;SDS011;16252;49.816;7.964;2023-01-10T03:07:21;4.35;;;1.10;;
29214;SDS011;16252;49.816;7.964;2023-01-10T03:10:55;4.95;;;1.65;;
29214;SDS011;16252;49.816;7.964;2023-01-10T03:15:53;1.88;;;1.30;;
29214;SDS011;16252;49.816;7.964;2023-01-10T03:18:22;4.88;;;1.40;;
29214;SDS011;16252;49.816;7.964;2023-01-10T03:20:54;3.63;;;1.40;;
29214;SDS011;16252;49.816;7.964;2023-01-10T03:23:22;7.10;;;1.63;;
29214;SDS011;16252;49.816;7.964;2023-01-10T03:25:49;2.03;;;1.10;;
29214;SDS011;16252;49.816;7.964;2023-01-10T03:28:20;4.60;;;1.35;;
29214;SDS011;16252;49.816;7.964;2023-01-10T03:30:54;3.20;;;1.60;;
29214;SDS011;16252;49.816;7.964;2023-01-10T03:33:27;4.03;;;1.48;;
29214;SDS011;16252;49.816;7.964;2023-01-10T03:38:32;3.03;;;1.40;;
29214;SDS011;16252;49.816;7.964;2023-01-10T03:49:34;3.65;;;1.88;;
29214;SDS011;16252;49.816;7.964;2023-01-10T03:52:01;3.60;;;1.40;;
29214;SDS011;16252;49.816;7.964;2023-01-10T03:54:29;2.08;;;1.25;;
29214;SDS011;16252;49.816;7.964;2023-01-10T03:56:54;2.97;;;1.60;;
29214;SDS011;16252;49.816;7.964;2023-01-10T03:59:22;2.10;;;1.23;;
29214;SDS011;16252;49.816;7.964;2023-01-10T04:01:49;2.92;;;1.48;;
29214;SDS011;16252;49.816;7.964;2023-01-10T04:04:15;6.00;;;1.80;;
29214;SDS011;16252;49.816;7.964;2023-01-10T04:06:40;4.18;;;1.52;;
29214;SDS011;16252;49.816;7.964;2023-01-10T04:09:06;5.13;;;1.48;;
29214;SDS011;16252;49.816;7.964;2023-01-10T04:11:32;3.60;;;1.73;;
29214;SDS011;16252;49.816;7.964;2023-01-10T04:13:57;4.65;;;1.40;;
29214;SDS011;16252;49.816;7.964;2023-01-10T04:16:22;7.93;;;1.85;;
29214;SDS011;16252;49.816;7.964;2023-01-10T04:18:47;9.68;;;2.40;;
29214;SDS011;16252;49.816;7.964;2023-01-10T04:21:13;2.20;;;1.23;;
29214;SDS011;16252;49.816;7.964;2023-01-10T04:23:38;5.25;;;1.40;;
29214;SDS011;16252;49.816;7.964;2023-01-10T04:26:03;2.85;;;1.55;;
29214;SDS011;16252;49.816;7.964;2023-01-10T04:28:29;6.75;;;1.90;;
29214;SDS011;16252;49.816;7.964;2023-01-10T04:30:54;8.82;;;2.00;;
29214;SDS011;16252;49.816;7.964;2023-01-10T04:33:19;5.95;;;1.83;;
29214;SDS011;16252;49.816;7.964;2023-01-10T04:35:48;2.70;;;1.70;;
29214;SDS011;16252;49.816;7.964;2023-01-10T04:38:15;4.28;;;1.63;;
29214;SDS011;16252;49.816;7.964;2023-01-10T04:40:41;2.85;;;1.33;;
29214;SDS011;16252;49.816;7.964;2023-01-10T04:43:07;5.70;;;1.55;;
29214;SDS011;16252;49.816;7.964;2023-01-10T04:45:33;3.45;;;1.65;;
29214;SDS011;16252;49.816;7.964;2023-01-10T04:47:58;5.22;;;1.67;;
29214;SDS011;16252;49.816;7.964;2023-01-10T04:50:24;6.40;;;1.95;;
29214;SDS011;16252;49.816;7.964;2023-01-10T04:52:50;5.75;;;1.70;;
29214;SDS011;16252;49.816;7.964;2023-01-10T04:55:15;5.40;;;1.33;;
29214;SDS011;16252;49.816;7.964;2023-01-10T04:57:40;4.93;;;1.85;;
29214;SDS011;16252;49.816;7.964;2023-01-10T05:00:06;4.03;;;1.48;;
29214;SDS011;16252;49.816;7.964;2023-01-10T05:02:32;5.20;;;1.50;;
29214;SDS011;16252;49.816;7.964;2023-01-10T05:04:57;3.92;;;1.83;;
29214;SDS011;16252;49.816;7.964;2023-01-10T05:07:22;6.55;;;1.50;;
29214;SDS011;16252;49.816;7.964;2023-01-10T05:09:48;3.42;;;1.30;;
29214;SDS011;16252;49.816;7.964;2023-01-10T05:12:13;4.25;;;1.30;;
29214;SDS011;16252;49.816;7.964;2023-01-10T05:14:39;5.30;;;1.50;;
29214;SDS011;16252;49.816;7.964;2023-01-10T05:17:04;4.65;;;1.60;;
29214;SDS011;16252;49.816;7.964;2023-01-10T05:19:29;6.65;;;1.52;;
29214;SDS011;16252;49.816;7.964;2023-01-10T05:21:54;3.95;;;1.35;;
29214;SDS011;16252;49.816;7.964;2023-01-10T05:24:20;4.32;;;1.20;;
29214;SDS011;16252;49.816;7.964;2023-01-10T05:26:46;2.88;;;1.40;;
29214;SDS011;16252;49.816;7.964;2023-01-10T05:29:11;4.80;;;1.90;;
29214;SDS011;16252;49.816;7.964;2023-01-10T05:31:38;5.95;;;1.63;;
29214;SDS011;16252;49.816;7.964;2023-01-10T05:34:03;5.30;;;1.70;;
29214;SDS011;16252;49.816;7.964;2023-01-10T05:36:29;6.10;;;1.60;;
29214;SDS011;16252;49.816;7.964;2023-01-10T05:38:54;5.70;;;1.70;;
29214;SDS011;16252;49.816;7.964;2023-01-10T05:41:19;6.57;;;1.25;;
29214;SDS011;16252;49.816;7.964;2023-01-10T05:43:44;3.33;;;1.60;;
29214;SDS011;16252;49.816;7.964;2023-01-10T05:46:10;5.80;;;1.35;;
29214;SDS011;16252;49.816;7.964;2023-01-10T05:48:35;5.13;;;1.60;;
29214;SDS011;16252;49.816;7.964;2023-01-10T05:51:01;4.13;;;1.65;;
29214;SDS011;16252;49.816;7.964;2023-01-10T05:53:27;4.45;;;1.55;;
29214;SDS011;16252;49.816;7.964;2023-01-10T05:55:56;3.85;;;1.23;;
29214;SDS011;16252;49.816;7.964;2023-01-10T05:58:23;4.80;;;1.50;;
29214;SDS011;16252;49.816;7.964;2023-01-10T06:00:49;5.60;;;2.25;;
29214;SDS011;16252;49.816;7.964;2023-01-10T06:03:15;4.90;;;1.48;;
29214;SDS011;16252;49.816;7.964;2023-01-10T06:05:41;5.25;;;1.70;;
29214;SDS011;16252;49.816;7.964;2023-01-10T06:08:06;7.18;;;2.97;;
29214;SDS011;16252;49.816;7.964;2023-01-10T06:10:31;7.47;;;3.42;;
29214;SDS011;16252;49.816;7.964;2023-01-10T06:12:56;6.63;;;3.58;;
29214;SDS011;16252;49.816;7.964;2023-01-10T06:15:22;7.00;;;2.72;;
29214;SDS011;16252;49.816;7.964;2023-01-10T06:17:47;5.93;;;2.40;;
29214;SDS011;16252;49.816;7.964;2023-01-10T06:20:13;5.18;;;1.90;;
29214;SDS011;16252;49.816;7.964;2023-01-10T06:22:42;5.30;;;1.70;;
29214;SDS011;16252;49.816;7.964;2023-01-10T06:25:08;6.18;;;1.80;;
29214;SDS011;16252;49.816;7.964;2023-01-10T06:27:34;6.47;;;2.00;;
29214;SDS011;16252;49.816;7.964;2023-01-10T06:30:00;5.65;;;2.08;;
29214;SDS011;16252;49.816;7.964;2023-01-10T06:32:25;7.32;;;1.98;;
29214;SDS011;16252;49.816;7.964;2023-01-10T06:34:51;4.40;;;1.98;;
29214;SDS011;16252;49.816;7.964;2023-01-10T06:37:17;6.15;;;1.60;;
29214;SDS011;16252;49.816;7.964;2023-01-10T06:39:42;5.88;;;1.98;;
29214;SDS011;16252;49.816;7.964;2023-01-10T06:42:07;5.65;;;1.98;;
29214;SDS011;16252;49.816;7.964;2023-01-10T06:44:32;4.72;;;2.05;;
29214;SDS011;16252;49.816;7.964;2023-01-10T06:46:59;4.70;;;2.05;;
29214;SDS011;16252;49.816;7.964;2023-01-10T06:49:24;6.00;;;2.20;;
29214;SDS011;16252;49.816;7.964;2023-01-10T06:51:49;6.10;;;1.92;;
29214;SDS011;16252;49.816;7.964;2023-01-10T06:54:15;8.98;;;2.40;;
29214;SDS011;16252;49.816;7.964;2023-01-10T06:56:41;5.85;;;2.20;;
29214;SDS011;16252;49.816;7.964;2023-01-10T06:59:07;8.20;;;2.30;;
29214;SDS011;16252;49.816;7.964;2023-01-10T07:01:32;7.47;;;1.90;;
29214;SDS011;16252;49.816;7.964;2023-01-10T07:03:58;5.93;;;2.20;;
29214;SDS011;16252;49.816;7.964;2023-01-10T07:06:23;8.80;;;2.72;;
29214;SDS011;16252;49.816;7.964;2023-01-10T07:08:48;12.75;;;2.47;;
29214;SDS011;16252;49.816;7.964;2023-01-10T07:11:14;5.07;;;2.08;;
29214;SDS011;16252;49.816;7.964;2023-01-10T07:13:41;12.68;;;2.72;;
29214;SDS011;16252;49.816;7.964;2023-01-10T07:16:10;9.63;;;2.90;;
29214;SDS011;16252;49.816;7.964;2023-01-10T07:18:38;3.95;;;1.83;;
29214;SDS011;16252;49.816;7.964;2023-01-10T07:21:05;9.40;;;2.30;;
29214;SDS011;16252;49.816;7.964;2023-01-10T07:23:31;3.92;;;1.90;;
29214;SDS011;16252;49.816;7.964;2023-01-10T07:25:57;8.00;;;3.05;;
29214;SDS011;16252;49.816;7.964;2023-01-10T07:28:25;8.32;;;2.20;;
29214;SDS011;16252;49.816;7.964;2023-01-10T07:30:51;12.10;;;2.67;;
29214;SDS011;16252;49.816;7.964;2023-01-10T07:33:16;7.97;;;2.25;;
29214;SDS011;16252;49.816;7.964;2023-01-10T07:35:41;10.88;;;2.63;;
29214;SDS011;16252;49.816;7.964;2023-01-10T07:38:07;5.20;;;2.13;;
29214;SDS011;16252;49.816;7.964;2023-01-10T07:40:33;7.53;;;2.40;;
29214;SDS011;16252;49.816;7.964;2023-01-10T07:42:59;7.70;;;2.33;;
29214;SDS011;16252;49.816;7.964;2023-01-10T07:45:25;6.80;;;2.72;;
29214;SDS011;16252;49.816;7.964;2023-01-10T07:47:55;6.47;;;1.98;;
29214;SDS011;16252;49.816;7.964;2023-01-10T07:50:24;7.55;;;2.22;;
29214;SDS011;16252;49.816;7.964;2023-01-10T07:52:50;5.50;;;2.38;;
29214;SDS011;16252;49.816;7.964;2023-01-10T07:55:15;7.75;;;2.00;;
29214;SDS011;16252;49.816;7.964;2023-01-10T07:57:41;12.18;;;3.58;;
29214;SDS011;16252;49.816;7.964;2023-01-10T08:00:07;9.27;;;4.55;;
29214;SDS011;16252;49.816;7.964;2023-01-10T08:02:33;9.18;;;3.85;;
29214;SDS011;16252;49.816;7.964;2023-01-10T08:04:58;7.22;;;2.97;;
29214;SDS011;16252;49.816;7.964;2023-01-10T08:07:24;8.55;;;2.70;;
29214;SDS011;16252;49.816;7.964;2023-01-10T08:09:49;8.93;;;2.90;;
29214;SDS011;16252;49.816;7.964;2023-01-10T08:12:14;4.88;;;2.25;;
29214;SDS011;16252;49.816;7.964;2023-01-10T08:14:40;7.47;;;2.28;;
29214;SDS011;16252;49.816;7.964;2023-01-10T08:17:05;9.82;;;2.38;;
29214;SDS011;16252;49.816;7.964;2023-01-10T08:19:30;7.95;;;2.55;;
29214;SDS011;16252;49.816;7.964;2023-01-10T08:21:56;8.88;;;2.63;;
29214;SDS011;16252;49.816;7.964;2023-01-10T08:24:21;9.43;;;2.95;;
29214;SDS011;16252;49.816;7.964;2023-01-10T08:26:46;8.32;;;2.90;;
29214;SDS011;16252;49.816;7.964;2023-01-10T08:29:12;9.95;;;2.80;;
29214;SDS011;16252;49.816;7.964;2023-01-10T08:31:39;7.55;;;2.53;;
29214;SDS011;16252;49.816;7.964;2023-01-10T08:34:05;5.53;;;2.15;;
29214;SDS011;16252;49.816;7.964;2023-01-10T08:36:30;10.13;;;2.28;;
29214;SDS011;16252;49.816;7.964;2023-01-10T08:38:55;7.15;;;2.17;;
29214;SDS011;16252;49.816;7.964;2023-01-10T08:41:21;8.30;;;2.17;;
29214;SDS011;16252;49.816;7.964;2023-01-10T08:43:49;7.32;;;2.50;;
29214;SDS011;16252;49.816;7.964;2023-01-10T08:46:19;9.02;;;2.40;;
29214;SDS011;16252;49.816;7.964;2023-01-10T08:48:47;7.97;;;2.20;;
29214;SDS011;16252;49.816;7.964;2023-01-10T08:51:14;8.05;;;1.77;;
29214;SDS011;16252;49.816;7.964;2023-01-10T08:53:40;7.50;;;3.08;;
29214;SDS011;16252;49.816;7.964;2023-01-10T08:56:05;12.15;;;3.20;;
29214;SDS011;16252;49.816;7.964;2023-01-10T08:58:31;7.05;;;2.85;;
29214;SDS011;16252;49.816;7.964;2023-01-10T09:00:56;6.07;;;3.20;;
29214;SDS011;16252;49.816;7.964;2023-01-10T09:03:21;10.60;;;3.90;;
29214;SDS011;16252;49.816;7.964;2023-01-10T09:05:47;7.35;;;3.75;;
29214;SDS011;16252;49.816;7.964;2023-01-10T09:08:12;9.63;;;2.70;;
29214;SDS011;16252;49.816;7.964;2023-01-10T09:10:38;7.00;;;2.92;;
29214;SDS011;16252;49.816;7.964;2023-01-10T09:13:03;6.70;;;2.55;;
29214;SDS011;16252;49.816;7.964;2023-01-10T09:15:31;7.07;;;2.40;;
29214;SDS011;16252;49.816;7.964;2023-01-10T09:18:02;6.47;;;1.90;;
29214;SDS011;16252;49.816;7.964;2023-01-10T09:20:30;6.32;;;1.88;;
29214;SDS011;16252;49.816;7.964;2023-01-10T09:22:56;8.30;;;2.15;;
29214;SDS011;16252;49.816;7.964;2023-01-10T09:25:22;7.63;;;2.17;;
29214;SDS011;16252;49.816;7.964;2023-01-10T09:27:54;8.52;;;3.17;;
29214;SDS011;16252;49.816;7.964;2023-01-10T09:30:20;10.27;;;3.00;;
29214;SDS011;16252;49.816;7.964;2023-01-10T09:32:48;7.07;;;2.22;;
29214;SDS011;16252;49.816;7.964;2023-01-10T09:35:15;9.23;;;2.58;;
29214;SDS011;16252;49.816;7.964;2023-01-10T09:37:40;13.63;;;2.80;;
29214;SDS011;16252;49.816;7.964;2023-01-10T09:40:06;10.07;;;2.60;;
29214;SDS011;16252;49.816;7.964;2023-01-10T09:45:43;7.93;;;2.85;;
29214;SDS011;16252;49.816;7.964;2023-01-10T09:48:16;8.23;;;2.70;;
29214;SDS011;16252;49.816;7.964;2023-01-10T09:51:08;8.02;;;2.70;;
29214;SDS011;16252;49.816;7.964;2023-01-10T09:53:54;8.60;;;2.22;;
29214;SDS011;16252;49.816;7.964;2023-01-10T09:56:24;8.20;;;2.35;;
29214;SDS011;16252;49.816;7.964;2023-01-10T09:58:49;9.00;;;2.65;;
29214;SDS011;16252;49.816;7.964;2023-01-10T10:01:20;9.38;;;2.78;;
29214;SDS011;16252;49.816;7.964;2023-01-10T10:06:53;9.82;;;2.90;;
29214;SDS011;16252;49.816;7.964;2023-01-10T10:09:22;6.25;;;2.47;;
29214;SDS011;16252;49.816;7.964;2023-01-10T10:12:13;11.80;;;3.42;;
29214;SDS011;16252;49.816;7.964;2023-01-10T10:14:54;6.57;;;2.30;;
29214;SDS011;16252;49.816;7.964;2023-01-10T10:25:47;9.18;;;2.40;;
29214;SDS011;16252;49.816;7.964;2023-01-10T10:28:26;9.63;;;2.75;;
29214;SDS011;16252;49.816;7.964;2023-01-10T10:34:18;8.15;;;2.70;;
29214;SDS011;16252;49.816;7.964;2023-01-10T10:39:43;10.98;;;2.78;;
29214;SDS011;16252;49.816;7.964;2023-01-10T10:42:30;8.18;;;2.60;;
29214;SDS011;16252;49.816;7.964;2023-01-10T10:45:06;8.50;;;2.80;;
29214;SDS011;16252;49.816;7.964;2023-01-10T10:47:42;9.98;;;2.40;;
29214;SDS011;16252;49.816;7.964;2023-01-10T10:52:39;8.53;;;1.83;;
29214;SDS011;16252;49.816;7.964;2023-01-10T10:55:10;8.38;;;2.10;;
29214;SDS011;16252;49.816;7.964;2023-01-10T10:57:38;9.52;;;2.03;;
29214;SDS011;16252;49.816;7.964;2023-01-10T11:00:06;6.40;;;2.05;;
29214;SDS011;16252;49.816;7.964;2023-01-10T11:05:39;10.90;;;2.70;;
29214;SDS011;16252;49.816;7.964;2023-01-10T11:08:08;5.88;;;2.05;;
29214;SDS011;16252;49.816;7.964;2023-01-10T11:15:54;8.57;;;3.00;;
29214;SDS011;16252;49.816;7.964;2023-01-10T11:18:21;8.82;;;2.67;;
29214;SDS011;16252;49.816;7.964;2023-01-10T11:21:08;10.75;;;3.13;;
29214;SDS011;16252;49.816;7.964;2023-01-10T11:23:48;10.35;;;2.92;;
29214;SDS011;16252;49.816;7.964;2023-01-10T11:29:07;7.35;;;2.50;;
29214;SDS011;16252;49.816;7.964;2023-01-10T11:31:37;12.05;;;3.00;;
29214;SDS011;16252;49.816;7.964;2023-01-10T11:34:04;8.02;;;2.45;;
29214;SDS011;16252;49.816;7.964;2023-01-10T11:39:30;7.80;;;2.58;;
29214;SDS011;16252;49.816;7.964;2023-01-10T11:41:57;9.68;;;2.53;;
29214;SDS011;16252;49.816;7.964;2023-01-10T11:44:47;7.10;;;2.25;;
29214;SDS011;16252;49.816;7.964;2023-01-10T11:47:13;6.78;;;2.20;;
29214;SDS011;16252;49.816;7.964;2023-01-10T11:49:39;11.20;;;2.78;;
29214;SDS011;16252;49.816;7.964;2023-01-10T11:52:19;9.82;;;2.83;;
29214;SDS011;16252;49.816;7.964;2023-01-10T11:54:48;9.82;;;2.65;;
29214;SDS011;16252;49.816;7.964;2023-01-10T11:57:18;9.02;;;2.53;;
29214;SDS011;16252;49.816;7.964;2023-01-10T12:00:06;8.82;;;2.90;;
29214;SDS011;16252;49.816;7.964;2023-01-10T12:02:34;15.05;;;3.72;;
29214;SDS011;16252;49.816;7.964;2023-01-10T12:07:30;11.23;;;2.38;;
29214;SDS011;16252;49.816;7.964;2023-01-10T12:10:24;7.60;;;3.20;;
29214;SDS011;16252;49.816;7.964;2023-01-10T12:12:55;6.53;;;3.03;;
29214;SDS011;16252;49.816;7.964;2023-01-10T12:15:24;9.13;;;3.00;;
29214;SDS011;16252;49.816;7.964;2023-01-10T12:17:57;9.45;;;3.70;;
29214;SDS011;16252;49.816;7.964;2023-01-10T12:20:25;10.57;;;2.80;;
29214;SDS011;16252;49.816;7.964;2023-01-10T12:22:58;13.07;;;3.30;;
29214;SDS011;16252;49.816;7.964;2023-01-10T12:25:30;11.65;;;2.95;;
29214;SDS011;16252;49.816;7.964;2023-01-10T12:27:58;7.55;;;2.72;;
29214;SDS011;16252;49.816;7.964;2023-01-10T12:30:29;12.50;;;2.80;;
29214;SDS011;16252;49.816;7.964;2023-01-10T12:32:59;9.40;;;2.45;;
29214;SDS011;16252;49.816;7.964;2023-01-10T12:35:42;10.88;;;3.08;;
29214;SDS011;16252;49.816;7.964;2023-01-10T12:41:06;13.48;;;2.97;;
29214;SDS011;16252;49.816;7.964;2023-01-10T12:43:36;6.35;;;2.75;;
29214;SDS011;16252;49.816;7.964;2023-01-10T12:46:23;10.70;;;2.95;;
29214;SDS011;16252;49.816;7.964;2023-01-10T12:49:40;10.82;;;3.30;;
29214;SDS011;16252;49.816;7.964;2023-01-10T12:51:57;8.70;;;2.92;;
29214;SDS011;16252;49.816;7.964;2023-01-10T12:54:28;8.50;;;3.50;;
29214;SDS011;16252;49.816;7.964;2023-01-10T12:56:54;9.63;;;2.97;;
29214;SDS011;16252;49.816;7.964;2023-01-10T12:59:28;9.32;;;2.28;;
29214;SDS011;16252;49.816;7.964;2023-01-10T13:02:02;8.60;;;2.60;;
29214;SDS011;16252;49.816;7.964;2023-01-10T13:04:38;11.77;;;2.15;;
29214;SDS011;16252;49.816;7.964;2023-01-10T13:07:05;9.68;;;2.25;;
29214;SDS011;16252;49.816;7.964;2023-01-10T13:09:37;6.97;;;2.58;;
29214;SDS011;16252;49.816;7.964;2023-01-10T13:12:09;9.68;;;2.50;;
29214;SDS011;16252;49.816;7.964;2023-01-10T13:17:35;6.90;;;2.25;;
29214;SDS011;16252;49.816;7.964;2023-01-10T13:22:40;8.18;;;2.30;;
29214;SDS011;16252;49.816;7.964;2023-01-10T13:25:17;10.63;;;3.10;;
29214;SDS011;16252;49.816;7.964;2023-01-10T13:27:43;6.75;;;1.92;;
29214;SDS011;16252;49.816;7.964;2023-01-10T13:30:22;13.85;;;2.25;;
29214;SDS011;16252;49.816;7.964;2023-01-10T13:32:56;9.57;;;2.03;;
29214;SDS011;16252;49.816;7.964;2023-01-10T13:35:25;9.52;;;2.40;;
29214;SDS011;16252;49.816;7.964;2023-01-10T13:37:53;8.57;;;2.08;;
29214;SDS011;16252;49.816;7.964;2023-01-10T13:40:24;12.68;;;2.72;;
29214;SDS011;16252;49.816;7.964;2023-01-10T13:48:41;7.20;;;2.33;;
29214;SDS011;16252;49.816;7.964;2023-01-10T13:51:27;9.82;;;2.03;;
29214;SDS011;16252;49.816;7.964;2023-01-10T13:54:00;7.03;;;2.58;;
29214;SDS011;16252;49.816;7.964;2023-01-10T13:56:34;10.15;;;2.60;;
29214;SDS011;16252;49.816;7.964;2023-01-10T13:59:00;8.23;;;2.65;;
29214;SDS011;16252;49.816;7.964;2023-01-10T14:01:50;9.02;;;2.53;;
29214;SDS011;16252;49.816;7.964;2023-01-10T14:04:36;9.68;;;2.22;;
29214;SDS011;16252;49.816;7.964;2023-01-10T14:07:14;8.40;;;2.60;;
29214;SDS011;16252;49.816;7.964;2023-01-10T14:09:46;10.82;;;2.58;;
29214;SDS011;16252;49.816;7.964;2023-01-10T14:12:22;11.32;;;2.60;;
29214;SDS011;16252;49.816;7.964;2023-01-10T14:14:54;5.68;;;2.28;;
29214;SDS011;16252;49.816;7.964;2023-01-10T14:20:04;13.50;;;2.65;;
29214;SDS011;16252;49.816;7.964;2023-01-10T14:22:39;9.53;;;2.60;;
29214;SDS011;16252;49.816;7.964;2023-01-10T14:25:17;11.80;;;2.33;;
29214;SDS011;16252;49.816;7.964;2023-01-10T14:27:44;10.85;;;2.75;;
29214;SDS011;16252;49.816;7.964;2023-01-10T14:30:20;10.27;;;2.42;;
29214;SDS011;16252;49.816;7.964;2023-01-10T14:32:49;6.07;;;2.35;;
29214;SDS011;16252;49.816;7.964;2023-01-10T14:35:18;10.93;;;3.25;;
29214;SDS011;16252;49.816;7.964;2023-01-10T14:37:55;10.13;;;2.70;;
29214;SDS011;16252;49.816;7.964;2023-01-10T14:40:27;11.52;;;2.33;;
29214;SDS011;16252;49.816;7.964;2023-01-10T14:43:00;9.20;;;2.65;;
29214;SDS011;16252;49.816;7.964;2023-01-10T14:48:21;10.40;;;2.10;;
29214;SDS011;16252;49.816;7.964;2023-01-10T14:50:53;12.80;;;2.85;;
29214;SDS011;16252;49.816;7.964;2023-01-10T14:53:33;13.18;;;2.53;;
29214;SDS011;16252;49.816;7.964;2023-01-10T14:55:59;11.73;;;3.25;;
29214;SDS011;16252;49.816;7.964;2023-01-10T14:58:24;9.63;;;2.55;;
29214;SDS011;16252;49.816;7.964;2023-01-10T15:00:50;6.72;;;2.10;;
29214;SDS011;16252;49.816;7.964;2023-01-10T15:03:19;10.32;;;2.90;;
29214;SDS011;16252;49.816;7.964;2023-01-10T15:05:48;4.97;;;2.20;;
29214;SDS011;16252;49.816;7.964;2023-01-10T15:08:16;8.95;;;2.10;;
29214;SDS011;16252;49.816;7.964;2023-01-10T15:10:45;8.35;;;3.08;;
29214;SDS011;16252;49.816;7.964;2023-01-10T15:13:14;8.30;;;3.03;;
29214;SDS011;16252;49.816;7.964;2023-01-10T15:15:42;7.05;;;2.60;;
29214;SDS011;16252;49.816;7.964;2023-01-10T15:20:52;27.00;;;10.77;;
29214;SDS011;16252;49.816;7.964;2023-01-10T15:23:18;22.70;;;7.55;;
29214;SDS011;16252;49.816;7.964;2023-01-10T15:25:44;35.15;;;12.50;;
29214;SDS011;16252;49.816;7.964;2023-01-10T15:28:18;16.63;;;7.40;;
29214;SDS011;16252;49.816;7.964;2023-01-10T15:30:43;14.60;;;5.68;;
29214;SDS011;16252;49.816;7.964;2023-01-10T15:33:14;14.43;;;4.53;;
29214;SDS011;16252;49.816;7.964;2023-01-10T15:35:41;9.43;;;3.33;;
29214;SDS011;16252;49.816;7.964;2023-01-10T15:38:13;12.40;;;3.42;;
29214;SDS011;16252;49.816;7.964;2023-01-10T15:40:41;10.15;;;2.72;;
29214;SDS011;16252;49.816;7.964;2023-01-10T15:45:47;6.20;;;2.45;;
29214;SDS011;16252;49.816;7.964;2023-01-10T15:51:11;7.57;;;2.38;;
29214;SDS011;16252;49.816;7.964;2023-01-10T15:54:30;6.50;;;2.25;;
29214;SDS011;16252;49.816;7.964;2023-01-10T15:56:49;5.78;;;2.15;;
29214;SDS011;16252;49.816;7.964;2023-01-10T15:59:32;5.25;;;2.30;;
29214;SDS011;16252;49.816;7.964;2023-01-10T16:04:41;5.28;;;2.30;;
29214;SDS011;16252;49.816;7.964;2023-01-10T16:07:21;6.35;;;2.10;;
29214;SDS011;16252;49.816;7.964;2023-01-10T16:09:57;8.07;;;1.73;;
29214;SDS011;16252;49.816;7.964;2023-01-10T16:12:36;5.22;;;1.77;;
29214;SDS011;16252;49.816;7.964;2023-01-10T16:15:23;5.80;;;2.05;;
29214;SDS011;16252;49.816;7.964;2023-01-10T16:17:51;4.93;;;1.73;;
29214;SDS011;16252;49.816;7.964;2023-01-10T16:20:18;9.38;;;2.15;;
29214;SDS011;16252;49.816;7.964;2023-01-10T16:22:45;10.75;;;1.98;;
29214;SDS011;16252;49.816;7.964;2023-01-10T16:25:13;4.65;;;2.00;;
29214;SDS011;16252;49.816;7.964;2023-01-10T16:27:39;6.22;;;2.00;;
29214;SDS011;16252;49.816;7.964;2023-01-10T16:30:05;7.90;;;2.53;;
29214;SDS011;16252;49.816;7.964;2023-01-10T16:32:31;8.30;;;2.45;;
29214;SDS011;16252;49.816;7.964;2023-01-10T16:34:56;11.13;;;3.78;;
29214;SDS011;16252;49.816;7.964;2023-01-10T16:37:21;8.93;;;4.03;;